createdAt,value
2018-05-19T00:02:11.203Z,99.90
2018-05-19T00:04:38.737Z,99.90
2018-05-19T00:07:06.239Z,99.90
2018-05-19T00:09:34.498Z,99.90
2018-05-19T00:12:02.803Z,99.90
2018-05-19T00:14:31.067Z,99.90
2018-05-19T00:16:58.563Z,99.90
2018-05-19T00:19:26.856Z,99.90
2018-05-19T00:21:55.120Z,99.90
2018-05-19T00:24:22.644Z,99.90
2018-05-19T00:26:50.184Z,99.90
2018-05-19T00:29:18.456Z,99.90
2018-05-19T00:31:45.961Z,99.90
2018-05-19T00:34:13.485Z,99.90
2018-05-19T00:36:40.983Z,99.90
2018-05-19T00:39:09.256Z,99.90
2018-05-19T00:41:36.789Z,99.90
2018-05-19T00:44:04.291Z,99.90
2018-05-19T00:46:31.785Z,99.90
2018-05-19T00:49:00.070Z,99.90
2018-05-19T00:51:28.336Z,99.90
2018-05-19T00:53:55.834Z,99.90
2018-05-19T00:56:23.375Z,99.90
2018-05-19T00:58:50.890Z,99.90
2018-05-19T01:01:18.399Z,99.90
2018-05-19T01:03:45.925Z,99.90
2018-05-19T01:06:13.419Z,99.90
2018-05-19T01:08:40.902Z,99.90
2018-05-19T01:11:08.435Z,99.90
2018-05-19T01:13:35.942Z,99.90
2018-05-19T01:16:03.444Z,99.90
2018-05-19T01:18:30.973Z,99.90
2018-05-19T01:20:58.480Z,99.90
2018-05-19T01:23:25.983Z,99.90
2018-05-19T01:25:54.280Z,99.90
2018-05-19T01:28:21.770Z,99.90
2018-05-19T01:30:49.276Z,99.90
2018-05-19T01:33:16.817Z,99.90
2018-05-19T01:35:44.320Z,99.90
2018-05-19T01:38:11.837Z,99.90
2018-05-19T01:40:39.342Z,99.90
2018-05-19T01:43:06.844Z,99.90
2018-05-19T01:45:34.372Z,99.90
2018-05-19T01:48:01.876Z,99.90
2018-05-19T01:50:29.376Z,99.90
2018-05-19T01:52:57.665Z,99.90
2018-05-19T01:55:25.162Z,99.90
2018-05-19T01:57:52.687Z,99.90
2018-05-19T02:00:20.178Z,99.90
2018-05-19T02:02:48.459Z,99.90
2018-05-19T02:05:16.714Z,99.90
2018-05-19T02:07:44.203Z,99.90
2018-05-19T02:10:11.726Z,99.90
2018-05-19T02:12:39.214Z,99.90
2018-05-19T02:15:06.702Z,99.90
2018-05-19T02:17:34.220Z,99.90
2018-05-19T02:20:01.727Z,99.90
2018-05-19T02:22:29.219Z,99.90
2018-05-19T02:24:56.762Z,99.90
2018-05-19T02:27:24.268Z,99.90
2018-05-19T02:29:51.772Z,99.90
2018-05-19T02:32:19.303Z,99.90
2018-05-19T02:34:46.813Z,99.90
2018-05-19T02:37:14.316Z,99.90
2018-05-19T02:39:41.848Z,99.90
2018-05-19T02:42:09.335Z,99.90
2018-05-19T02:44:36.834Z,99.90
2018-05-19T02:47:04.362Z,99.90
2018-05-19T02:49:31.859Z,99.90
2018-05-19T02:51:59.347Z,99.90
2018-05-19T02:54:26.884Z,99.90
2018-05-19T02:56:54.388Z,99.90
2018-05-19T02:59:21.897Z,99.90
2018-05-19T03:01:50.185Z,99.90
2018-05-19T03:04:18.443Z,99.90
2018-05-19T03:06:45.973Z,99.90
2018-05-19T03:09:13.472Z,99.90
2018-05-19T03:11:40.983Z,99.90
2018-05-19T03:14:09.279Z,99.90
2018-05-19T03:16:37.552Z,99.90
2018-05-19T03:19:05.842Z,99.90
2018-05-19T03:21:33.346Z,99.90
2018-05-19T03:24:00.842Z,99.90
2018-05-19T03:26:28.384Z,99.90
2018-05-19T03:28:55.882Z,99.90
2018-05-19T03:31:23.387Z,99.90
2018-05-19T03:33:50.913Z,99.90
2018-05-19T03:36:18.402Z,99.90
2018-05-19T03:38:45.895Z,99.90
2018-05-19T03:41:13.422Z,99.90
2018-05-19T03:43:40.923Z,99.90
2018-05-19T03:46:08.432Z,99.90
2018-05-19T03:48:36.740Z,99.90
2018-05-19T03:51:04.247Z,99.90
2018-05-19T03:53:31.743Z,99.90
2018-05-19T03:55:59.262Z,99.90
2018-05-19T03:58:38.450Z,99.90
2018-05-19T04:01:17.895Z,99.90
2018-05-19T04:03:45.401Z,99.90
2018-05-19T04:06:12.908Z,99.90
2018-05-19T04:08:40.437Z,99.90
2018-05-19T04:11:08.702Z,99.90
2018-05-19T04:13:36.244Z,99.90
2018-05-19T04:16:03.744Z,99.90
2018-05-19T04:18:32.011Z,99.90
2018-05-19T04:20:59.544Z,99.90
2018-05-19T04:23:27.046Z,99.90
2018-05-19T04:25:54.559Z,99.90
2018-05-19T04:28:22.851Z,99.90
2018-05-19T04:30:51.111Z,99.90
2018-05-19T04:33:18.614Z,99.90
2018-05-19T04:35:46.919Z,99.90
2018-05-19T04:38:14.407Z,99.90
2018-05-19T04:40:41.928Z,99.90
2018-05-19T04:43:09.419Z,99.90
2018-05-19T04:45:37.688Z,99.90
2018-05-19T04:48:05.222Z,99.90
2018-05-19T04:50:32.711Z,99.90
2018-05-19T04:53:00.218Z,99.90
2018-05-19T04:55:28.512Z,99.90
2018-05-19T04:57:56.003Z,99.90
2018-05-19T05:00:23.486Z,99.90
2018-05-19T05:02:51.018Z,99.90
2018-05-19T05:05:18.528Z,99.90
2018-05-19T05:07:46.014Z,99.90
2018-05-19T05:10:13.547Z,99.90
2018-05-19T05:12:41.035Z,99.90
2018-05-19T05:15:08.542Z,99.90
2018-05-19T05:17:36.067Z,99.90
2018-05-19T05:20:03.563Z,99.90
2018-05-19T05:22:31.058Z,99.90
2018-05-19T05:24:58.592Z,99.90
2018-05-19T05:27:26.098Z,99.90
2018-05-19T05:29:53.594Z,99.90
2018-05-19T05:32:21.903Z,99.90
2018-05-19T05:34:49.403Z,99.90
2018-05-19T05:37:16.897Z,99.90
2018-05-19T05:39:44.431Z,99.90
2018-05-19T05:42:11.938Z,99.90
2018-05-19T05:44:39.430Z,99.90
2018-05-19T05:47:07.719Z,99.90
2018-05-19T05:49:35.981Z,99.90
2018-05-19T05:52:03.481Z,99.90
2018-05-19T05:54:31.010Z,99.90
2018-05-19T05:56:58.507Z,99.90
2018-05-19T05:59:26.006Z,99.90
2018-05-19T06:01:53.538Z,99.90
2018-05-19T06:04:21.049Z,99.90
2018-05-19T06:06:48.551Z,99.90
2018-05-19T06:09:16.095Z,99.90
2018-05-19T06:11:43.595Z,99.90
2018-05-19T06:14:11.091Z,99.90
2018-05-19T06:16:38.624Z,99.90
2018-05-19T06:19:06.122Z,99.90
2018-05-19T06:21:33.659Z,99.90
2018-05-19T06:24:01.152Z,99.90
2018-05-19T06:26:28.646Z,99.90
2018-05-19T06:28:56.174Z,99.90
2018-05-19T06:31:23.670Z,99.90
2018-05-19T06:33:51.176Z,99.90
2018-05-19T06:36:19.462Z,99.90
2018-05-19T06:38:47.726Z,99.90
2018-05-19T06:41:15.222Z,99.90
2018-05-19T06:43:43.516Z,99.90
2018-05-19T06:46:11.015Z,99.90
2018-05-19T06:48:38.542Z,99.90
2018-05-19T06:51:06.034Z,99.90
2018-05-19T06:53:33.529Z,99.90
2018-05-19T06:56:01.092Z,99.90
2018-05-19T06:58:28.592Z,99.90
2018-05-19T07:00:56.083Z,99.90
2018-05-19T07:03:23.801Z,99.90
2018-05-19T07:05:51.309Z,99.90
2018-05-19T07:08:18.842Z,99.90
2018-05-19T07:10:46.356Z,99.90
2018-05-19T07:13:13.864Z,99.90
2018-05-19T07:15:42.156Z,99.90
2018-05-19T07:18:10.419Z,99.90
2018-05-19T07:20:37.919Z,99.90
2018-05-19T07:23:06.202Z,99.90
2018-05-19T07:25:34.464Z,99.90
2018-05-19T07:28:01.992Z,99.90
2018-05-19T07:30:29.491Z,99.90
2018-05-19T07:32:57.012Z,99.90
2018-05-19T07:35:24.531Z,99.90
2018-05-19T07:37:52.041Z,99.90
2018-05-19T07:40:20.301Z,99.90
2018-05-19T07:42:47.828Z,99.90
2018-05-19T07:45:15.321Z,99.90
2018-05-19T07:47:42.824Z,99.90
2018-05-19T07:50:10.343Z,99.90
2018-05-19T07:52:37.834Z,99.90
2018-05-19T07:55:05.329Z,99.90
2018-05-19T07:57:32.871Z,99.90
2018-05-19T08:00:00.363Z,99.90
2018-05-19T08:02:27.859Z,99.90
2018-05-19T08:04:56.156Z,99.90
2018-05-19T08:07:23.680Z,99.90
2018-05-19T08:09:51.202Z,99.90
2018-05-19T08:12:19.541Z,99.90
2018-05-19T08:14:47.037Z,99.90
2018-05-19T08:17:14.588Z,99.90
2018-05-19T08:19:42.120Z,99.90
2018-05-19T08:22:09.634Z,99.90
2018-05-19T08:24:37.140Z,99.90
2018-05-19T08:27:05.434Z,99.90
2018-05-19T08:29:32.936Z,99.90
2018-05-19T08:32:00.439Z,99.90
2018-05-19T08:34:27.963Z,99.90
2018-05-19T08:36:55.454Z,99.90
2018-05-19T08:39:22.952Z,99.90
2018-05-19T08:41:50.474Z,99.90
2018-05-19T08:44:17.975Z,99.90
2018-05-19T08:46:45.477Z,99.90
2018-05-19T08:49:13.767Z,99.90
2018-05-19T08:51:42.023Z,99.90
2018-05-19T08:54:09.515Z,99.90
2018-05-19T08:56:37.039Z,99.90
2018-05-19T08:59:04.544Z,99.90
2018-05-19T09:01:32.040Z,99.90
2018-05-19T09:04:00.336Z,99.90
2018-05-19T09:06:27.835Z,99.90
2018-05-19T09:08:55.334Z,99.90
2018-05-19T09:11:22.862Z,99.90
2018-05-19T09:13:50.368Z,99.90
2018-05-19T09:16:17.859Z,99.90
2018-05-19T09:18:45.400Z,99.90
2018-05-19T09:21:12.890Z,99.90
2018-05-19T09:23:40.381Z,99.90
2018-05-19T09:26:07.911Z,99.90
2018-05-19T09:28:35.406Z,99.90
2018-05-19T09:31:02.921Z,99.90
2018-05-19T09:33:30.442Z,99.90
2018-05-19T09:35:57.975Z,99.90
2018-05-19T09:38:25.470Z,99.90
2018-05-19T09:40:52.994Z,99.90
2018-05-19T09:43:20.492Z,99.90
2018-05-19T09:45:47.987Z,99.90
2018-05-19T09:48:15.513Z,99.90
2018-05-19T09:50:43.021Z,99.90
2018-05-19T09:53:10.614Z,99.90
2018-05-19T09:55:38.059Z,99.90
2018-05-19T09:58:05.557Z,99.90
2018-05-19T10:00:33.088Z,99.90
2018-05-19T10:03:00.612Z,99.90
2018-05-19T10:05:28.124Z,99.90
2018-05-19T10:07:55.649Z,99.90
2018-05-19T10:10:23.143Z,99.90
2018-05-19T10:12:50.651Z,99.90
2018-05-19T10:15:18.179Z,99.90
2018-05-19T10:17:46.430Z,99.90
2018-05-19T10:20:13.917Z,99.90
2018-05-19T10:22:41.472Z,99.90
2018-05-19T10:25:08.961Z,99.90
2018-05-19T10:27:36.459Z,99.90
2018-05-19T10:30:03.986Z,99.90
2018-05-19T10:32:31.492Z,99.90
2018-05-19T10:34:59.760Z,99.90
2018-05-19T10:37:27.288Z,99.90
2018-05-19T10:39:54.785Z,99.90
2018-05-19T10:42:22.307Z,99.90
2018-05-19T10:44:49.794Z,99.90
2018-05-19T10:47:17.374Z,99.90
2018-05-19T10:49:44.864Z,99.90
2018-05-19T10:52:12.381Z,99.90
2018-05-19T10:54:39.912Z,99.90
2018-05-19T10:57:07.403Z,99.90
2018-05-19T10:59:34.894Z,99.90
2018-05-19T11:02:02.759Z,99.90
2018-05-19T11:04:31.032Z,99.90
2018-05-19T11:06:58.531Z,99.90
2018-05-19T11:09:26.828Z,99.90
2018-05-19T11:11:54.332Z,99.90
2018-05-19T11:14:21.815Z,99.90
2018-05-19T11:16:49.350Z,99.90
2018-05-19T11:19:16.852Z,99.90
2018-05-19T11:21:44.590Z,99.90
2018-05-19T11:24:12.187Z,99.90
2018-05-19T11:26:39.713Z,99.90
2018-05-19T11:29:07.962Z,99.90
2018-05-19T11:31:35.485Z,99.90
2018-05-19T11:34:03.758Z,99.90
2018-05-19T11:36:32.022Z,99.90
2018-05-19T11:38:59.565Z,99.90
2018-05-19T11:41:27.066Z,99.90
2018-05-19T11:43:54.572Z,99.90
2018-05-19T11:46:22.099Z,99.90
2018-05-19T11:48:49.603Z,99.90
2018-05-19T11:51:17.884Z,99.90
2018-05-19T11:53:46.166Z,99.90
2018-05-19T11:56:14.427Z,99.90
2018-05-19T11:58:41.932Z,99.90
2018-05-19T12:01:10.258Z,99.90
2018-05-19T12:03:37.765Z,99.90
2018-05-19T12:06:05.259Z,99.90
2018-05-19T12:08:33.534Z,99.90
2018-05-19T12:11:01.027Z,99.90
2018-05-19T12:13:29.287Z,99.90
2018-05-19T12:15:56.801Z,99.90
2018-05-19T12:18:24.290Z,99.90
2018-05-19T12:20:51.795Z,99.90
2018-05-19T12:23:19.318Z,99.90
2018-05-19T12:25:46.820Z,99.90
2018-05-19T12:28:14.370Z,99.90
2018-05-19T12:30:41.867Z,99.90
2018-05-19T12:33:09.366Z,99.90
2018-05-19T12:35:36.903Z,99.90
2018-05-19T12:38:04.394Z,99.90
2018-05-19T12:40:31.896Z,99.90
2018-05-19T12:42:59.426Z,99.90
2018-05-19T12:45:26.929Z,99.90
2018-05-19T12:47:55.190Z,99.90
2018-05-19T12:50:23.070Z,99.90
2018-05-19T12:52:50.569Z,99.90
2018-05-19T12:55:18.840Z,99.90
2018-05-19T12:57:47.140Z,99.90
2018-05-19T13:00:15.396Z,99.90
2018-05-19T13:02:42.932Z,99.90
2018-05-19T13:05:10.441Z,99.90
2018-05-19T13:07:37.939Z,99.90
2018-05-19T13:10:06.231Z,99.90
2018-05-19T13:12:34.585Z,99.90
2018-05-19T13:15:02.013Z,99.90
2018-05-19T13:17:29.558Z,99.60
2018-05-19T13:19:57.828Z,98.60
2018-05-19T13:22:25.320Z,98.60
2018-05-19T13:24:53.611Z,99.90
2018-05-19T13:27:21.884Z,99.90
2018-05-19T13:29:49.382Z,99.90
2018-05-19T13:32:16.909Z,99.90
2018-05-19T13:34:44.415Z,99.90
2018-05-19T13:37:11.913Z,99.60
2018-05-19T13:39:39.438Z,99.90
2018-05-19T13:42:06.951Z,99.30
2018-05-19T13:44:35.248Z,98.60
2018-05-19T13:47:02.771Z,98.60
2018-05-19T13:49:31.032Z,98.70
2018-05-19T13:51:58.534Z,98.70
2018-05-19T13:54:26.840Z,99.80
2018-05-19T13:56:54.338Z,99.50
2018-05-19T13:59:21.865Z,98.50
2018-05-19T14:01:50.145Z,98.20
2018-05-19T14:04:18.436Z,98.40
2018-05-19T14:06:46.732Z,99.40
2018-05-19T14:09:14.232Z,99.30
2018-05-19T14:11:41.733Z,98.40
2018-05-19T14:14:09.250Z,99.90
2018-05-19T14:16:37.514Z,99.90
2018-05-19T14:19:05.021Z,99.90
2018-05-19T14:21:32.560Z,99.90
2018-05-19T14:24:00.047Z,99.90
2018-05-19T14:26:28.306Z,99.90
2018-05-19T14:28:55.849Z,99.90
2018-05-19T14:31:23.355Z,99.90
2018-05-19T14:33:50.883Z,99.90
2018-05-19T14:36:18.406Z,99.90
2018-05-19T14:38:45.904Z,99.90
2018-05-19T14:41:13.416Z,99.90
2018-05-19T14:43:40.939Z,99.90
2018-05-19T14:46:09.200Z,99.90
2018-05-19T14:48:37.488Z,99.90
2018-05-19T14:51:05.036Z,99.90
2018-05-19T14:53:32.529Z,99.90
2018-05-19T14:56:00.030Z,99.90
2018-05-19T14:58:27.557Z,99.90
2018-05-19T15:00:55.045Z,99.90
2018-05-19T15:03:22.541Z,99.90
2018-05-19T15:05:50.078Z,99.90
2018-05-19T15:08:17.582Z,99.90
2018-05-19T15:10:45.086Z,99.90
2018-05-19T15:13:12.601Z,99.90
2018-05-19T15:15:40.874Z,99.90
2018-05-19T15:18:08.371Z,99.90
2018-05-19T15:20:36.655Z,99.90
2018-05-19T15:23:05.003Z,99.90
2018-05-19T15:25:32.446Z,99.90
2018-05-19T15:27:59.936Z,99.90
2018-05-19T15:30:27.436Z,99.90
2018-05-19T15:32:54.961Z,99.80
2018-05-19T15:35:22.461Z,99.90
2018-05-19T15:37:50.017Z,99.90
2018-05-19T15:40:17.546Z,99.90
2018-05-19T15:42:45.800Z,99.90
2018-05-19T15:45:13.296Z,99.90
2018-05-19T15:47:41.636Z,99.90
2018-05-19T15:50:09.130Z,99.90
2018-05-19T15:52:36.635Z,99.90
2018-05-19T15:55:04.911Z,99.90
2018-05-19T15:57:32.407Z,99.90
2018-05-19T15:59:59.911Z,99.90
2018-05-19T16:02:27.441Z,99.90
2018-05-19T16:04:54.938Z,99.60
2018-05-19T16:07:22.439Z,99.70
2018-05-19T16:09:50.142Z,99.90
2018-05-19T16:12:18.427Z,99.90
2018-05-19T16:14:46.698Z,99.90
2018-05-19T16:17:14.224Z,99.90
2018-05-19T16:19:41.724Z,99.90
2018-05-19T16:22:09.226Z,99.90
2018-05-19T16:24:36.739Z,99.90
2018-05-19T16:27:04.250Z,99.90
2018-05-19T16:29:31.755Z,99.90
2018-05-19T16:32:00.043Z,99.90
2018-05-19T16:34:27.539Z,99.90
2018-05-19T16:36:55.058Z,99.90
2018-05-19T16:39:22.596Z,99.90
2018-05-19T16:41:50.087Z,99.90
2018-05-19T16:44:17.599Z,99.90
2018-05-19T16:46:45.095Z,99.90
2018-05-19T16:49:12.595Z,99.90
2018-05-19T16:51:40.107Z,99.90
2018-05-19T16:54:08.366Z,99.90
2018-05-19T16:56:35.862Z,99.90
2018-05-19T16:59:04.142Z,99.90
2018-05-19T17:01:31.631Z,99.90
2018-05-19T17:03:59.134Z,99.90
2018-05-19T17:06:26.654Z,99.90
2018-05-19T17:08:54.907Z,99.90
2018-05-19T17:11:22.413Z,99.90
2018-05-19T17:13:50.690Z,99.90
2018-05-19T17:16:18.973Z,99.90
2018-05-19T17:18:46.462Z,99.90
2018-05-19T17:21:13.987Z,99.90
2018-05-19T17:23:41.488Z,99.90
2018-05-19T17:26:08.996Z,99.90
2018-05-19T17:28:36.518Z,99.90
2018-05-19T17:31:04.007Z,99.90
2018-05-19T17:33:31.494Z,99.90
2018-05-19T17:35:59.775Z,99.90
2018-05-19T17:38:28.040Z,99.90
2018-05-19T17:40:55.531Z,99.90
2018-05-19T17:43:23.831Z,99.90
2018-05-19T17:45:51.354Z,99.90
2018-05-19T17:48:18.843Z,99.90
2018-05-19T17:50:46.369Z,99.90
2018-05-19T17:53:13.870Z,99.90
2018-05-19T17:55:41.403Z,99.90
2018-05-19T17:58:08.904Z,99.90
2018-05-19T18:00:36.418Z,99.90
2018-05-19T18:03:04.712Z,99.90
2018-05-19T18:05:32.971Z,99.90
2018-05-19T18:08:00.472Z,99.90
2018-05-19T18:10:27.999Z,99.90
2018-05-19T18:12:55.487Z,99.90
2018-05-19T18:15:22.982Z,99.90
2018-05-19T18:17:51.322Z,99.90
2018-05-19T18:20:18.833Z,99.90
2018-05-19T18:22:47.106Z,99.90
2018-05-19T18:25:14.650Z,99.90
2018-05-19T18:27:42.138Z,99.90
2018-05-19T18:30:09.622Z,99.90
2018-05-19T18:32:37.921Z,99.90
2018-05-19T18:35:06.187Z,99.90
2018-05-19T18:37:33.690Z,99.90
2018-05-19T18:40:01.984Z,99.90
2018-05-19T18:42:29.479Z,99.90
2018-05-19T18:44:56.969Z,99.90
2018-05-19T18:47:24.492Z,99.90
2018-05-19T18:49:51.989Z,99.90
2018-05-19T18:52:19.506Z,99.90
2018-05-19T18:54:56.984Z,99.90
2018-05-19T18:57:24.480Z,99.90
2018-05-19T18:59:51.987Z,99.90
2018-05-19T19:02:19.510Z,99.90
2018-05-19T19:04:47.011Z,99.90
2018-05-19T19:07:15.283Z,99.90
2018-05-19T19:09:42.902Z,99.90
2018-05-19T19:12:10.335Z,99.90
2018-05-19T19:14:37.818Z,99.90
2018-05-19T19:17:06.107Z,99.90
2018-05-19T19:19:34.360Z,99.90
2018-05-19T19:22:01.858Z,99.90
2018-05-19T19:24:30.152Z,99.90
2018-05-19T19:26:58.414Z,99.90
2018-05-19T19:29:25.913Z,99.90
2018-05-19T19:31:54.190Z,99.90
2018-05-19T19:34:22.440Z,99.90
2018-05-19T19:36:49.953Z,99.90
2018-05-19T19:39:18.231Z,99.90
2018-05-19T19:41:46.512Z,99.90
2018-05-19T19:44:13.998Z,99.90
2018-05-19T19:46:42.280Z,99.90
2018-05-19T19:49:10.552Z,99.90
2018-05-19T19:51:38.054Z,99.90
2018-05-19T19:54:05.582Z,99.90
2018-05-19T19:56:33.114Z,99.90
2018-05-19T19:59:00.607Z,99.90
2018-05-19T20:01:28.127Z,99.90
2018-05-19T20:03:55.644Z,99.90
2018-05-19T20:06:23.135Z,99.90
2018-05-19T20:08:50.646Z,99.90
2018-05-19T20:11:18.911Z,99.90
2018-05-19T20:13:46.418Z,99.90
2018-05-19T20:16:13.934Z,99.90
2018-05-19T20:18:41.426Z,99.90
2018-05-19T20:21:09.749Z,99.90
2018-05-19T20:23:37.227Z,99.90
2018-05-19T20:26:04.722Z,99.90
2018-05-19T20:28:32.223Z,99.90
2018-05-19T20:30:59.746Z,99.90
2018-05-19T20:33:27.238Z,99.90
2018-05-19T20:35:54.740Z,99.90
2018-05-19T20:38:23.033Z,99.90
2018-05-19T20:40:51.315Z,99.90
2018-05-19T20:43:18.814Z,99.90
2018-05-19T20:45:46.323Z,99.90
2018-05-19T20:48:13.820Z,99.90
2018-05-19T20:50:41.316Z,99.90
2018-05-19T20:53:09.595Z,99.90
2018-05-19T20:55:37.855Z,99.90
2018-05-19T20:58:05.348Z,99.90
2018-05-19T21:00:32.876Z,99.90
2018-05-19T21:03:00.366Z,99.90
2018-05-19T21:05:27.851Z,99.90
2018-05-19T21:07:55.367Z,99.90
2018-05-19T21:10:22.880Z,99.90
2018-05-19T21:12:50.414Z,99.90
2018-05-19T21:15:17.913Z,99.90
2018-05-19T21:17:45.423Z,99.90
2018-05-19T21:20:13.701Z,99.90
2018-05-19T21:22:41.976Z,99.90
2018-05-19T21:25:09.482Z,99.90
2018-05-19T21:27:37.035Z,99.90
2018-05-19T21:30:04.508Z,99.90
2018-05-19T21:32:32.765Z,99.90
2018-05-19T21:35:00.281Z,99.90
2018-05-19T21:37:27.778Z,99.90
2018-05-19T21:39:55.270Z,99.90
2018-05-19T21:42:22.799Z,99.90
2018-05-19T21:44:50.282Z,99.90
2018-05-19T21:47:17.779Z,99.90
2018-05-19T21:49:45.303Z,99.90
2018-05-19T21:52:12.799Z,99.90
2018-05-19T21:54:40.290Z,99.90
2018-05-19T21:57:07.815Z,99.90
2018-05-19T21:59:35.311Z,99.90
2018-05-19T22:02:02.822Z,99.90
2018-05-19T22:04:30.350Z,99.90
2018-05-19T22:06:57.857Z,99.90
2018-05-19T22:09:25.346Z,99.90
2018-05-19T22:11:53.644Z,99.90
2018-05-19T22:14:21.917Z,99.90
2018-05-19T22:16:49.426Z,99.90
2018-05-19T22:19:16.962Z,99.90
2018-05-19T22:21:45.228Z,99.90
2018-05-19T22:24:12.722Z,99.90
2018-05-19T22:26:41.008Z,99.90
2018-05-19T22:29:09.280Z,99.90
2018-05-19T22:31:36.798Z,99.90
2018-05-19T22:34:04.323Z,99.90
2018-05-19T22:36:31.831Z,99.90
2018-05-19T22:38:59.342Z,99.90
2018-05-19T22:41:26.862Z,99.90
2018-05-19T22:43:55.123Z,99.90
2018-05-19T22:46:22.626Z,99.90
2018-05-19T22:48:50.157Z,99.90
2018-05-19T22:51:17.667Z,99.90
2018-05-19T22:53:45.925Z,99.90
2018-05-19T22:56:13.450Z,99.90
2018-05-19T22:58:40.951Z,99.90
2018-05-19T23:01:10.069Z,99.90
2018-05-19T23:03:37.596Z,99.90
2018-05-19T23:06:05.099Z,99.90
2018-05-19T23:08:32.603Z,99.90
2018-05-19T23:11:00.891Z,99.90
2018-05-19T23:13:29.149Z,99.90
2018-05-19T23:15:56.647Z,99.90
2018-05-19T23:18:24.946Z,99.90
2018-05-19T23:20:53.209Z,99.90
2018-05-19T23:23:20.718Z,99.90
2018-05-19T23:25:48.244Z,99.90
2018-05-19T23:28:15.731Z,99.90
2018-05-19T23:30:43.255Z,99.90
2018-05-19T23:33:10.747Z,99.90
2018-05-19T23:35:38.267Z,99.90
2018-05-19T23:38:05.776Z,99.90
2018-05-19T23:40:33.279Z,99.90
2018-05-19T23:43:00.799Z,99.90
2018-05-19T23:45:28.402Z,99.90
2018-05-19T23:47:55.890Z,99.90
2018-05-19T23:50:23.407Z,99.90
2018-05-19T23:52:50.910Z,99.90
2018-05-19T23:55:18.418Z,99.90
2018-05-19T23:57:46.706Z,99.90
